Terminal Aerodrome Forecast
Issued by NWS Shreveport, LA

Home | Current Version | Previous Version | Text Only | Print | Product List | Glossary On
Versions: 1 2 3 4 5 6 7 8 9 10 11 12 13 14 15 16 17 18 19 20
000
FTUS44 KSHV 240500
TAFSHV
TAF
KSHV 240526Z 2406/2506 14007KT P6SM SCT035 SCT250
     FM240900 17006KT P6SM FEW025 BKN250
     FM241500 19014G22KT P6SM BKN040
     FM242000 23015G24KT P6SM VCTS BKN050CB
     FM250300 32008KT P6SM FEW035=

USA.gov is the U.S. government's official web portal to all federal, state and local government web resources and services.